Campanya meteocatpedra

Dades EMA Camarasa

?
?
Resum diari 21:00 TU
Dades diàries de l'estació meteorològica
Temperatura mitjana 24.3 °C
Temperatura màxima 30.2 °C 15:53 TU
Temperatura mínima 18.7 °C 5:00 TU
Humitat relativa mitjana 54%
Precipitació acumulada 0.0 mm
Ratxa màxima del vent (2 m) 16.9 km/h - 142º 11:47 TU
Irradiació solar global 23.8 MJ/m2

El tram horari està expressat en Temps Universal (TU). Cal sumar una hora en horari d'hivern i dues en horari d'estiu per passar a l'hora oficial.

Camarasa

Metadades estació meteorol´gica
Municipi Camarasa
Comarca Noguera
Altitud 668 m
Data alta 07.03.2006
Estat actual Operativa
Dades de període
Període
TU
TM
°C
TX
°C
TN
°C
HRM
%
PPT
mm
VVM (2 m)
km/h
DVM (2 m)
graus
VVX (2 m)
km/h
RS
W/m2
00:00 - 00:30 20.8 21.5 20.5 62 0.0 2.2 121 5.0 0
00:30 - 01:00 21.1 21.7 20.8 60 0.0 1.4 78 5.0 0
01:00 - 01:30 20.1 20.8 19.6 65 0.0 2.5 97 10.1 0
01:30 - 02:00 19.9 20.1 19.7 66 0.0 4.0 97 9.0 0
02:00 - 02:30 19.6 19.7 19.4 66 0.0 2.9 89 6.5 0
02:30 - 03:00 19.4 19.5 19.3 65 0.0 1.1 63 4.3 0
03:00 - 03:30 19.2 19.4 19.1 67 0.0 2.5 259 5.4 0
03:30 - 04:00 19.3 19.7 19.0 66 0.0 1.4 245 3.6 0
04:00 - 04:30 19.5 19.7 19.1 64 0.0 0.7 94 5.4 0
04:30 - 05:00 19.0 19.1 18.7 64 0.0 1.8 104 5.8 0
05:00 - 05:30 18.9 19.0 18.7 65 0.0 1.8 101 5.8 10
05:30 - 06:00 19.3 19.6 19.0 65 0.0 2.2 98 6.1 43
06:00 - 06:30 19.8 20.2 19.6 63 0.0 1.1 102 6.8 92
06:30 - 07:00 20.5 20.7 20.2 62 0.0 1.1 9 4.0 119
07:00 - 07:30 20.6 21.1 20.3 63 0.0 2.2 282 4.3 232
07:30 - 08:00 22.4 23.2 21.2 56 0.0 2.9 45 8.3 386
08:00 - 08:30 23.1 23.5 22.7 54 0.0 5.0 116 10.8 408
08:30 - 09:00 23.5 23.9 23.3 54 0.0 5.0 133 9.4 484
09:00 - 09:30 24.0 24.2 23.8 53 0.0 4.7 144 11.9 537
09:30 - 10:00 24.9 25.5 24.3 51 0.0 4.0 146 11.5 694
10:00 - 10:30 25.7 26.1 25.2 49 0.0 3.6 161 10.1 639
10:30 - 11:00 26.7 27.3 25.8 47 0.0 4.0 165 13.3 824
11:00 - 11:30 27.2 27.4 26.9 49 0.0 5.4 142 13.3 875
11:30 - 12:00 27.6 28.1 27.1 50 0.0 5.4 150 16.9 893
12:00 - 12:30 28.2 28.5 27.8 48 0.0 6.1 195 16.2 893
12:30 - 13:00 28.6 29.1 27.9 46 0.0 6.1 212 13.7 873
13:00 - 13:30 28.8 29.2 28.6 45 0.0 5.4 202 13.7 847
13:30 - 14:00 29.3 29.7 28.9 43 0.0 6.1 164 15.5 807
14:00 - 14:30 29.3 29.8 28.9 42 0.0 5.8 191 14.8 644
14:30 - 15:00 29.5 29.9 29.2 41 0.0 6.5 175 15.5 689
15:00 - 15:30 29.7 30.1 29.2 41 0.0 6.1 180 14.8 577
15:30 - 16:00 29.5 30.2 28.9 40 0.0 5.4 189 13.3 511
16:00 - 16:30 29.8 30.2 29.6 38 0.0 5.0 216 10.1 441
16:30 - 17:00 29.6 30.2 29.3 40 0.0 4.7 194 12.6 334
17:00 - 17:30 29.1 29.5 28.6 41 0.0 4.0 226 14.8 209
17:30 - 18:00 27.9 28.6 27.3 43 0.0 4.7 174 11.2 127
18:00 - 18:30 27.0 27.3 26.4 45 0.0 3.2 207 9.0 54
18:30 - 19:00 25.8 26.3 25.2 48 0.0 2.5 163 6.1 12
19:00 - 19:30 24.9 25.3 24.2 51 0.0 2.2 262 5.0 0
19:30 - 20:00 24.0 24.1 23.9 57 0.0 4.0 280 8.3 0
20:00 - 20:30 23.8 24.0 23.7 60 0.0 2.9 286 6.8 0
20:30 - 21:00 23.6 23.9 23.4 60 0.0 2.2 269 5.0 0
21:00 - 21:30 23.2 23.6 22.7 61 0.0 2.9 133 7.6 0

Les dades en taronja només han passat un control de qualitat automàtic. Resta pendent la seva validació definitiva.